createdAt,value
2023-04-02T00:02:25.660Z,8.00
2023-04-02T00:05:27.292Z,10.30
2023-04-02T00:08:03.550Z,14.20
2023-04-02T00:11:19.686Z,8.00
2023-04-02T00:13:55.165Z,10.20
2023-04-02T00:16:29.838Z,9.00
2023-04-02T00:19:39.541Z,10.60
2023-04-02T00:22:45.704Z,11.90
2023-04-02T00:25:21.477Z,12.60
2023-04-02T00:27:57.826Z,14.80
2023-04-02T00:30:35.959Z,13.10
2023-04-02T00:33:17.191Z,8.90
2023-04-02T00:35:55.895Z,9.30
2023-04-02T00:38:34.379Z,9.00
2023-04-02T00:41:17.056Z,9.00
2023-04-02T00:44:06.601Z,8.90
2023-04-02T00:46:52.688Z,10.80
2023-04-02T00:49:27.908Z,8.30
2023-04-02T00:52:07.032Z,9.30
2023-04-02T00:55:23.705Z,14.80
2023-04-02T00:58:09.646Z,10.10
2023-04-02T01:00:41.219Z,9.00
2023-04-02T01:03:38.981Z,8.60
2023-04-02T01:06:20.278Z,9.20
2023-04-02T01:09:55.074Z,7.60
2023-04-02T01:13:35.753Z,6.50
2023-04-02T01:20:25.217Z,6.60
2023-04-02T01:23:23.865Z,7.60
2023-04-02T01:26:19.415Z,8.60
2023-04-02T01:29:18.720Z,8.70
2023-04-02T01:31:55.943Z,6.40
2023-04-02T01:34:33.003Z,7.30
2023-04-02T01:37:18.491Z,8.10
2023-04-02T01:40:18.081Z,6.90
2023-04-02T01:43:02.228Z,7.90
2023-04-02T01:45:35.797Z,8.30
2023-04-02T01:48:25.149Z,7.40
2023-04-02T01:51:04.772Z,7.90
2023-04-02T01:53:37.512Z,7.50
2023-04-02T01:56:17.750Z,8.40
2023-04-02T01:58:53.745Z,7.60
2023-04-02T02:01:54.544Z,8.10
2023-04-02T02:04:27.993Z,8.70
2023-04-02T02:07:01.820Z,8.40
2023-04-02T02:09:36.258Z,10.80
2023-04-02T02:12:07.112Z,12.30
2023-04-02T02:14:52.517Z,10.70
2023-04-02T02:17:35.254Z,10.50
2023-04-02T02:20:28.663Z,9.20
2023-04-02T02:23:00.779Z,6.40
2023-04-02T02:25:39.851Z,6.90
2023-04-02T02:28:40.712Z,7.70
2023-04-02T02:31:28.587Z,8.70
2023-04-02T02:34:21.564Z,11.70
2023-04-02T02:37:06.533Z,12.80
2023-04-02T02:39:44.461Z,12.70
2023-04-02T02:42:40.015Z,13.00
2023-04-02T02:45:27.509Z,10.60
2023-04-02T02:48:04.815Z,10.30
2023-04-02T02:50:37.601Z,12.60
2023-04-02T02:53:27.309Z,9.50
2023-04-02T02:56:05.327Z,11.30
2023-04-02T02:58:43.551Z,12.30
2023-04-02T03:01:27.387Z,14.20
2023-04-02T03:04:06.453Z,13.70
2023-04-02T03:06:42.595Z,13.30
2023-04-02T03:09:46.266Z,12.30
2023-04-02T03:13:20.667Z,13.70
2023-04-02T03:16:36.929Z,10.10
2023-04-02T03:19:47.271Z,9.50
2023-04-02T03:23:17.877Z,9.70
2023-04-02T03:26:08.597Z,10.00
2023-04-02T03:29:10.575Z,9.90
2023-04-02T03:32:06.077Z,8.40
2023-04-02T03:34:45.781Z,8.20
2023-04-02T03:37:39.646Z,9.60
2023-04-02T03:40:47.747Z,7.70
2023-04-02T03:43:29.980Z,6.90
2023-04-02T03:46:36.091Z,8.20
2023-04-02T03:49:39.852Z,7.10
2023-04-02T03:52:28.862Z,6.20
2023-04-02T03:55:18.912Z,7.60
2023-04-02T03:58:11.937Z,7.10
2023-04-02T04:01:26.598Z,6.50
2023-04-02T04:04:11.355Z,7.80
2023-04-02T04:06:55.302Z,8.80
2023-04-02T04:09:38.073Z,7.10
2023-04-02T04:12:41.564Z,7.70
2023-04-02T04:15:35.096Z,8.10
2023-04-02T04:18:40.395Z,8.70
2023-04-02T04:21:50.759Z,8.30
2023-04-02T04:27:19.014Z,8.10
2023-04-02T04:30:14.846Z,8.30
2023-04-02T04:33:11.231Z,7.80
2023-04-02T04:35:56.190Z,7.00
2023-04-02T04:38:37.101Z,6.00
2023-04-02T04:41:30.758Z,7.50
2023-04-02T04:44:41.211Z,5.60
2023-04-02T04:47:35.058Z,6.70
2023-04-02T04:50:36.483Z,7.20
2023-04-02T04:53:23.064Z,6.50
2023-04-02T04:56:16.556Z,7.70
2023-04-02T04:59:24.555Z,7.10
2023-04-02T05:02:23.504Z,6.10
2023-04-02T05:05:01.532Z,9.30
2023-04-02T05:08:05.728Z,7.80
2023-04-02T05:10:58.890Z,7.70
2023-04-02T05:13:47.625Z,6.30
2023-04-02T05:17:01.475Z,5.20
2023-04-02T05:20:02.415Z,7.80
2023-04-02T05:28:57.525Z,6.20
2023-04-02T05:31:46.747Z,6.10
2023-04-02T05:37:26.971Z,6.40
2023-04-02T05:40:08.549Z,7.00
2023-04-02T05:42:43.071Z,6.80
2023-04-02T05:45:16.963Z,7.10
2023-04-02T05:47:54.467Z,8.10
2023-04-02T05:50:49.382Z,7.20
2023-04-02T05:54:09.776Z,6.20
2023-04-02T05:56:53.582Z,5.60
2023-04-02T05:59:38.842Z,7.00
2023-04-02T06:02:43.552Z,6.50
2023-04-02T06:05:26.700Z,7.10
2023-04-02T06:08:13.184Z,8.40
2023-04-02T06:11:08.358Z,9.90
2023-04-02T06:13:45.093Z,10.00
2023-04-02T06:16:35.476Z,10.10
2023-04-02T06:19:23.601Z,10.70
2023-04-02T06:22:11.291Z,15.90
2023-04-02T06:25:01.068Z,13.60
2023-04-02T06:27:36.082Z,14.20
2023-04-02T06:30:29.559Z,19.90
2023-04-02T06:33:19.327Z,14.60
2023-04-02T06:35:53.348Z,12.40
2023-04-02T06:38:47.095Z,12.20
2023-04-02T06:41:27.638Z,9.20
2023-04-02T06:44:30.343Z,8.30
2023-04-02T06:47:48.868Z,9.10
2023-04-02T06:51:13.948Z,9.40
2023-04-02T06:53:59.569Z,8.10
2023-04-02T06:56:51.001Z,8.70
2023-04-02T06:59:28.365Z,8.00
2023-04-02T07:02:19.220Z,8.30
2023-04-02T07:05:09.507Z,8.40
2023-04-02T07:07:57.163Z,9.00
2023-04-02T07:10:51.980Z,10.70
2023-04-02T07:13:43.598Z,10.60
2023-04-02T07:16:25.623Z,10.90
2023-04-02T07:19:36.646Z,9.00
2023-04-02T07:22:23.919Z,11.00
2023-04-02T07:28:06.774Z,13.20
2023-04-02T07:30:45.351Z,10.00
2023-04-02T07:33:26.823Z,8.10
2023-04-02T07:36:07.466Z,9.60
2023-04-02T07:38:44.330Z,9.20
2023-04-02T07:41:26.832Z,12.00
2023-04-02T07:43:57.328Z,13.40
2023-04-02T07:46:31.940Z,9.80
2023-04-02T07:49:04.433Z,10.80
2023-04-02T07:54:37.350Z,10.80
2023-04-02T07:57:28.456Z,7.50
2023-04-02T08:00:01.662Z,9.00
2023-04-02T08:02:35.330Z,9.00
2023-04-02T08:05:34.351Z,10.10
2023-04-02T08:08:09.078Z,7.10
2023-04-02T08:10:41.353Z,8.80
2023-04-02T08:13:21.082Z,9.40
2023-04-02T08:16:05.463Z,6.90
2023-04-02T08:18:40.910Z,8.70
2023-04-02T08:21:36.192Z,7.20
2023-04-02T08:24:09.497Z,9.10
2023-04-02T08:26:42.268Z,27.20
2023-04-02T08:29:13.356Z,25.70
2023-04-02T08:31:54.312Z,9.00
2023-04-02T08:34:52.603Z,7.60
2023-04-02T08:37:36.213Z,8.00
2023-04-02T08:40:22.697Z,7.80
2023-04-02T08:44:39.980Z,10.10
2023-04-02T08:47:09.681Z,7.90
2023-04-02T08:49:59.305Z,8.80
2023-04-02T08:52:41.502Z,9.30
2023-04-02T08:58:45.863Z,11.80
2023-04-02T09:01:52.234Z,7.90
2023-04-02T09:04:27.717Z,7.00
2023-04-02T09:07:04.874Z,8.70
2023-04-02T09:09:39.193Z,9.90
2023-04-02T09:12:34.603Z,8.80
2023-04-02T09:15:35.293Z,15.00
2023-04-02T09:18:21.304Z,10.20
2023-04-02T09:20:58.004Z,11.20
2023-04-02T09:23:29.321Z,9.70
2023-04-02T09:26:04.885Z,12.10
2023-04-02T09:28:56.615Z,7.00
2023-04-02T09:31:50.454Z,9.40
2023-04-02T09:34:35.242Z,7.60
2023-04-02T09:37:25.807Z,9.90
2023-04-02T09:40:32.967Z,8.40
2023-04-02T09:43:33.356Z,8.00
2023-04-02T09:46:40.761Z,11.60
2023-04-02T09:49:42.277Z,11.60
2023-04-02T09:52:30.072Z,8.40
2023-04-02T09:55:16.302Z,10.00
2023-04-02T09:57:52.386Z,12.10
2023-04-02T10:00:32.881Z,6.10
2023-04-02T10:03:18.790Z,6.10
2023-04-02T10:06:08.115Z,11.10
2023-04-02T10:09:03.066Z,9.90
2023-04-02T10:11:45.874Z,10.40
2023-04-02T10:14:26.383Z,8.30
2023-04-02T10:17:42.882Z,10.70
2023-04-02T10:20:48.603Z,10.10
2023-04-02T10:24:02.984Z,6.10
2023-04-02T10:27:21.936Z,9.80
2023-04-02T10:30:21.494Z,9.30
2023-04-02T10:33:34.255Z,10.10
2023-04-02T10:37:04.283Z,9.60
2023-04-02T10:40:50.783Z,7.90
2023-04-02T10:43:47.589Z,7.40
2023-04-02T10:47:32.336Z,14.20
2023-04-02T10:51:25.354Z,15.20
2023-04-02T10:54:39.456Z,19.40
2023-04-02T10:57:41.124Z,14.60
2023-04-02T11:01:04.728Z,12.90
2023-04-02T11:04:20.489Z,11.70
2023-04-02T11:07:14.796Z,9.00
2023-04-02T11:09:55.147Z,8.50
2023-04-02T11:12:50.841Z,8.50
2023-04-02T11:15:54.509Z,6.30
2023-04-02T11:18:39.560Z,5.20
2023-04-02T11:21:58.139Z,8.40
2023-04-02T11:24:52.609Z,5.20
2023-04-02T11:27:44.808Z,6.40
2023-04-02T11:30:28.902Z,4.90
2023-04-02T11:33:45.579Z,5.20
2023-04-02T11:36:55.308Z,9.30
2023-04-02T11:40:04.143Z,6.50
2023-04-02T11:42:47.476Z,7.90
2023-04-02T11:45:24.333Z,8.90
2023-04-02T11:48:02.550Z,9.70
2023-04-02T11:50:46.280Z,8.30
2023-04-02T11:53:33.598Z,12.90
2023-04-02T11:56:55.706Z,5.20
2023-04-02T12:00:01.718Z,30.10
2023-04-02T12:03:00.000Z,5.80
2023-04-02T12:05:53.006Z,8.20
2023-04-02T12:09:22.215Z,10.90
2023-04-02T12:12:18.711Z,11.10
2023-04-02T12:14:52.893Z,11.50
2023-04-02T12:17:48.073Z,8.50
2023-04-02T12:20:41.297Z,7.50
2023-04-02T12:23:53.997Z,11.30
2023-04-02T12:26:42.948Z,8.60
2023-04-02T12:33:00.299Z,8.40
2023-04-02T12:35:47.126Z,9.70
2023-04-02T12:39:03.229Z,11.60
2023-04-02T12:41:58.108Z,9.30
2023-04-02T12:45:26.100Z,9.70
2023-04-02T12:48:22.695Z,7.70
2023-04-02T12:51:27.973Z,7.50
2023-04-02T12:54:19.150Z,8.40
2023-04-02T12:57:36.464Z,7.50
2023-04-02T13:00:28.055Z,4.80
2023-04-02T13:03:52.335Z,5.10
2023-04-02T13:07:36.984Z,5.20
2023-04-02T13:11:04.419Z,8.80
2023-04-02T13:14:33.173Z,6.80
2023-04-02T13:18:17.847Z,7.20
2023-04-02T13:21:45.593Z,9.50
2023-04-02T13:24:58.623Z,6.30
2023-04-02T13:28:05.057Z,9.10
2023-04-02T13:30:58.559Z,10.70
2023-04-02T13:33:29.353Z,9.20
2023-04-02T13:36:00.403Z,7.70
2023-04-02T13:38:30.480Z,9.60
2023-04-02T13:41:00.969Z,8.70
2023-04-02T13:43:31.756Z,10.70
2023-04-02T13:46:08.187Z,11.20
2023-04-02T13:48:49.153Z,9.40
2023-04-02T13:51:52.139Z,13.70
2023-04-02T13:54:56.607Z,11.00
2023-04-02T13:57:27.495Z,9.20
2023-04-02T13:59:58.161Z,15.60
2023-04-02T14:02:32.581Z,13.40
2023-04-02T14:05:18.035Z,10.30
2023-04-02T14:08:32.908Z,11.50
2023-04-02T14:11:03.657Z,11.10
2023-04-02T14:14:20.237Z,10.90
2023-04-02T14:17:38.546Z,9.40
2023-04-02T14:20:26.471Z,9.00
2023-04-02T14:23:09.286Z,14.80
2023-04-02T14:25:57.997Z,18.40
2023-04-02T14:29:14.028Z,18.70
2023-04-02T14:32:11.343Z,14.20
2023-04-02T14:35:10.569Z,19.50
2023-04-02T14:38:26.659Z,27.20
2023-04-02T14:41:18.644Z,19.00
2023-04-02T14:44:11.478Z,21.90
2023-04-02T14:46:47.316Z,16.90
2023-04-02T14:49:44.330Z,17.90
2023-04-02T14:52:19.704Z,23.80
2023-04-02T14:55:06.953Z,19.30
2023-04-02T14:57:50.518Z,17.50
2023-04-02T15:00:49.309Z,21.20
2023-04-02T15:03:38.792Z,24.20
2023-04-02T15:06:28.203Z,37.70
2023-04-02T15:09:24.908Z,18.70
2023-04-02T15:12:14.494Z,16.10
2023-04-02T15:15:04.281Z,19.30
2023-04-02T15:17:38.142Z,19.90
2023-04-02T15:20:18.448Z,19.70
2023-04-02T15:23:14.736Z,17.30
2023-04-02T15:26:06.594Z,18.70
2023-04-02T15:32:35.318Z,19.50
2023-04-02T15:39:02.693Z,13.40
2023-04-02T15:41:44.354Z,20.30
2023-04-02T15:44:20.107Z,20.20
2023-04-02T15:47:11.465Z,15.10
2023-04-02T15:50:36.674Z,49.20
2023-04-02T15:53:51.955Z,16.80
2023-04-02T15:57:29.499Z,18.30
2023-04-02T16:00:46.383Z,16.80
2023-04-02T16:04:04.712Z,18.00
2023-04-02T16:07:54.907Z,14.20
2023-04-02T16:10:46.345Z,15.30
2023-04-02T16:13:58.214Z,17.70
2023-04-02T16:16:43.847Z,16.60
2023-04-02T16:19:52.312Z,16.20
2023-04-02T16:22:33.622Z,20.00
2023-04-02T16:25:54.112Z,17.40
2023-04-02T16:29:27.928Z,13.80
2023-04-02T16:32:39.937Z,14.40
2023-04-02T16:35:43.959Z,15.60
2023-04-02T16:39:43.195Z,21.40
2023-04-02T16:43:11.446Z,18.00
2023-04-02T16:46:40.404Z,19.00
2023-04-02T16:50:10.195Z,13.80
2023-04-02T16:57:01.445Z,17.40
2023-04-02T17:00:10.345Z,17.60
2023-04-02T17:03:34.437Z,17.20
2023-04-02T17:11:04.411Z,16.50
2023-04-02T17:18:35.222Z,16.50
2023-04-02T17:21:28.113Z,29.60
2023-04-02T17:24:27.405Z,22.10
2023-04-02T17:27:49.306Z,27.80
2023-04-02T17:30:47.905Z,65.20
2023-04-02T17:33:35.642Z,26.90
2023-04-02T17:37:01.611Z,20.00
2023-04-02T17:39:48.588Z,15.80
2023-04-02T17:43:07.972Z,15.60
2023-04-02T17:45:56.222Z,19.30
2023-04-02T17:49:17.893Z,14.80
2023-04-02T17:53:20.095Z,7.50
2023-04-02T17:56:02.738Z,9.60
2023-04-02T17:59:39.882Z,9.90
2023-04-02T18:02:45.023Z,12.80
2023-04-02T18:06:14.454Z,11.10
2023-04-02T18:09:22.036Z,14.40
2023-04-02T18:12:24.364Z,13.40
2023-04-02T18:15:42.185Z,19.40
2023-04-02T18:18:29.568Z,15.00
2023-04-02T18:21:56.929Z,22.00
2023-04-02T18:25:36.020Z,17.40
2023-04-02T18:29:06.713Z,12.40
2023-04-02T18:31:54.997Z,13.40
2023-04-02T18:35:14.110Z,12.80
2023-04-02T18:38:20.373Z,14.20
2023-04-02T18:41:33.597Z,14.20
2023-04-02T18:44:59.025Z,20.60
2023-04-02T18:52:20.782Z,15.50
2023-04-02T18:55:07.373Z,15.70
2023-04-02T18:57:46.943Z,15.10
2023-04-02T19:00:43.906Z,15.10
2023-04-02T19:03:39.289Z,13.30
2023-04-02T19:06:21.701Z,14.50
2023-04-02T19:09:03.609Z,16.50
2023-04-02T19:14:21.433Z,13.90
2023-04-02T19:17:28.649Z,11.80
2023-04-02T19:20:12.460Z,12.60
2023-04-02T19:23:08.312Z,12.70
2023-04-02T19:26:07.302Z,15.40
2023-04-02T19:29:00.290Z,10.70
2023-04-02T19:32:06.348Z,16.10
2023-04-02T19:35:24.703Z,13.50
2023-04-02T19:38:36.773Z,13.80
2023-04-02T19:42:04.319Z,11.00
2023-04-02T19:44:49.574Z,11.70
2023-04-02T19:47:25.991Z,13.50
2023-04-02T19:50:07.510Z,28.00
2023-04-02T19:52:44.959Z,10.50
2023-04-02T19:55:51.886Z,12.30
2023-04-02T19:58:33.962Z,12.30
2023-04-02T20:01:16.621Z,14.60
2023-04-02T20:04:07.890Z,14.30
2023-04-02T20:09:25.010Z,18.70
2023-04-02T20:12:02.570Z,15.80
2023-04-02T20:14:42.145Z,16.80
2023-04-02T20:17:51.869Z,17.00
2023-04-02T20:20:48.102Z,11.20
2023-04-02T20:23:31.978Z,10.60
2023-04-02T20:26:10.965Z,17.50
2023-04-02T20:28:50.509Z,20.60
2023-04-02T20:31:49.508Z,18.20
2023-04-02T20:34:25.198Z,14.30
2023-04-02T20:37:25.389Z,13.60
2023-04-02T20:40:29.475Z,15.80
2023-04-02T20:43:05.205Z,16.40
2023-04-02T20:46:09.457Z,15.50
2023-04-02T20:48:54.243Z,12.50
2023-04-02T20:51:37.812Z,12.00
2023-04-02T20:54:40.143Z,10.60
2023-04-02T20:57:15.244Z,14.70
2023-04-02T20:59:53.505Z,15.10
2023-04-02T21:03:14.858Z,16.30
2023-04-02T21:06:40.335Z,13.70
2023-04-02T21:09:53.310Z,10.10
2023-04-02T21:12:54.598Z,11.50
2023-04-02T21:18:21.898Z,8.90
2023-04-02T21:25:03.363Z,13.20
2023-04-02T21:29:11.997Z,11.60
2023-04-02T21:31:55.097Z,15.70
2023-04-02T21:35:10.550Z,12.50
2023-04-02T21:37:50.656Z,10.80
2023-04-02T21:40:32.064Z,16.70
2023-04-02T21:43:30.326Z,10.40
2023-04-02T21:46:09.685Z,16.60
2023-04-02T21:49:29.763Z,10.00
2023-04-02T21:52:07.528Z,11.40
2023-04-02T21:55:06.937Z,11.00
2023-04-02T22:14:27.853Z,14.90
2023-04-02T22:19:03.060Z,13.40
2023-04-02T22:23:36.957Z,14.60
2023-04-02T22:31:52.202Z,10.60
2023-04-02T22:40:53.839Z,12.20
2023-04-02T22:43:28.265Z,12.90
2023-04-02T22:46:08.897Z,13.30
2023-04-02T22:48:56.837Z,11.50
2023-04-02T22:51:49.807Z,14.20
2023-04-02T23:02:32.291Z,14.00
2023-04-02T23:05:11.991Z,12.70
2023-04-02T23:07:48.307Z,14.90
2023-04-02T23:10:34.222Z,15.80
2023-04-02T23:13:11.417Z,10.80
2023-04-02T23:15:48.997Z,11.70
2023-04-02T23:18:26.092Z,15.50
2023-04-02T23:21:09.301Z,15.70
2023-04-02T23:23:56.212Z,14.20
2023-04-02T23:26:41.241Z,18.50
2023-04-02T23:29:18.203Z,14.90
2023-04-02T23:32:10.839Z,16.00
2023-04-02T23:35:13.780Z,15.80
2023-04-02T23:37:53.229Z,17.20
2023-04-02T23:40:47.797Z,16.60
2023-04-02T23:43:30.742Z,17.30
2023-04-02T23:46:13.202Z,14.70
2023-04-02T23:49:10.422Z,11.80
2023-04-02T23:51:41.448Z,14.20
2023-04-02T23:54:35.548Z,15.90
2023-04-02T23:57:12.273Z,16.80
2023-04-02T23:59:44.405Z,13.40
